Terminal Aerodrome Forecast
Issued by NWS Sterling, VA

Home | Current Version | Previous Version | Text Only | Print | Product List | Glossary On
Versions: 1 2 3 4 5 6 7 8 9 10 11 12 13 14 15 16 17 18 19 20 21 22 23 24 25 26
525
FTUS41 KLWX 221456 AAA
TAFIAD
TAF AMD
KIAD 221456Z 2215/2318 30012G20KT P6SM SCT250
     FM221800 27010G22KT P6SM FEW250
     FM230000 30009KT P6SM SCT080
     FM230900 33005KT P6SM SKC=

USA.gov is the U.S. government's official web portal to all federal, state and local government web resources and services.